sensor_id;sensor_type;location;lat;lon;timestamp;pressure;altitude;pressure_sealevel;temperature;humidity
47082;BME280;33066;49.296;14.470;2022-08-21T00:02:14;96873.74;;;23.09;45.44
47082;BME280;33066;49.296;14.470;2022-08-21T00:04:36;96875.75;;;22.82;45.43
47082;BME280;33066;49.296;14.470;2022-08-21T00:07:02;96877.83;;;23.24;45.51
47082;BME280;33066;49.296;14.470;2022-08-21T00:09:27;96876.06;;;23.00;45.55
47082;BME280;33066;49.296;14.470;2022-08-21T00:11:52;96875.52;;;23.05;45.50
47082;BME280;33066;49.296;14.470;2022-08-21T00:14:18;96876.66;;;23.04;45.45
47082;BME280;33066;49.296;14.470;2022-08-21T00:16:43;96877.18;;;23.01;45.54
47082;BME280;33066;49.296;14.470;2022-08-21T00:19:09;96877.61;;;22.79;45.47
47082;BME280;33066;49.296;14.470;2022-08-21T00:21:36;96875.15;;;23.01;45.52
47082;BME280;33066;49.296;14.470;2022-08-21T00:24:00;96875.71;;;23.01;45.62
47082;BME280;33066;49.296;14.470;2022-08-21T00:26:25;96872.48;;;23.07;45.57
47082;BME280;33066;49.296;14.470;2022-08-21T00:28:51;96871.20;;;22.99;45.58
47082;BME280;33066;49.296;14.470;2022-08-21T00:31:16;96870.67;;;23.00;45.58
47082;BME280;33066;49.296;14.470;2022-08-21T00:33:41;96871.25;;;22.99;45.60
47082;BME280;33066;49.296;14.470;2022-08-21T00:36:07;96873.16;;;23.05;45.55
47082;BME280;33066;49.296;14.470;2022-08-21T00:38:33;96874.04;;;23.00;45.63
47082;BME280;33066;49.296;14.470;2022-08-21T00:40:59;96875.07;;;23.03;45.61
47082;BME280;33066;49.296;14.470;2022-08-21T00:43:25;96876.68;;;23.06;45.54
47082;BME280;33066;49.296;14.470;2022-08-21T00:45:48;96875.29;;;23.07;45.59
47082;BME280;33066;49.296;14.470;2022-08-21T00:48:14;96875.97;;;22.84;45.58
47082;BME280;33066;49.296;14.470;2022-08-21T00:50:44;96875.58;;;23.03;45.61
47082;BME280;33066;49.296;14.470;2022-08-21T00:53:06;96873.25;;;23.07;45.54
47082;BME280;33066;49.296;14.470;2022-08-21T00:55:30;96873.37;;;22.80;45.73
47082;BME280;33066;49.296;14.470;2022-08-21T00:57:57;96872.62;;;22.83;45.68
47082;BME280;33066;49.296;14.470;2022-08-21T01:00:23;96872.52;;;23.05;45.77
47082;BME280;33066;49.296;14.470;2022-08-21T01:02:46;96869.79;;;22.17;45.69
47082;BME280;33066;49.296;14.470;2022-08-21T01:05:13;96863.84;;;23.63;44.35
47082;BME280;33066;49.296;14.470;2022-08-21T01:07:37;96867.17;;;23.50;44.35
47082;BME280;33066;49.296;14.470;2022-08-21T01:10:03;96866.83;;;23.21;44.77
47082;BME280;33066;49.296;14.470;2022-08-21T01:12:27;96864.87;;;23.26;45.12
47082;BME280;33066;49.296;14.470;2022-08-21T01:14:52;96864.14;;;23.13;45.28
47082;BME280;33066;49.296;14.470;2022-08-21T01:17:19;96865.87;;;23.34;45.43
47082;BME280;33066;49.296;14.470;2022-08-21T01:19:44;96862.62;;;22.97;45.49
47082;BME280;33066;49.296;14.470;2022-08-21T01:22:10;96861.05;;;22.69;45.65
47082;BME280;33066;49.296;14.470;2022-08-21T01:24:35;96859.41;;;22.88;45.75
47082;BME280;33066;49.296;14.470;2022-08-21T01:27:02;96857.39;;;22.90;45.76
47082;BME280;33066;49.296;14.470;2022-08-21T01:29:32;96856.34;;;23.18;45.68
47082;BME280;33066;49.296;14.470;2022-08-21T01:31:52;96855.58;;;23.20;45.62
47082;BME280;33066;49.296;14.470;2022-08-21T01:34:17;96853.83;;;23.14;45.65
47082;BME280;33066;49.296;14.470;2022-08-21T01:36:44;96853.95;;;23.14;45.73
47082;BME280;33066;49.296;14.470;2022-08-21T01:39:09;96851.96;;;23.10;45.72
47082;BME280;33066;49.296;14.470;2022-08-21T01:41:34;96852.72;;;23.11;45.75
47082;BME280;33066;49.296;14.470;2022-08-21T01:43:59;96850.08;;;22.90;45.59
47082;BME280;33066;49.296;14.470;2022-08-21T01:46:25;96847.71;;;23.16;45.51
47082;BME280;33066;49.296;14.470;2022-08-21T01:48:50;96847.52;;;23.15;45.53
47082;BME280;33066;49.296;14.470;2022-08-21T01:51:15;96845.24;;;23.10;45.67
47082;BME280;33066;49.296;14.470;2022-08-21T01:53:40;96843.69;;;23.12;45.68
47082;BME280;33066;49.296;14.470;2022-08-21T01:56:12;96842.38;;;22.86;45.69
47082;BME280;33066;49.296;14.470;2022-08-21T01:58:32;96843.11;;;23.07;45.77
47082;BME280;33066;49.296;14.470;2022-08-21T02:00:57;96842.67;;;23.08;45.81
47082;BME280;33066;49.296;14.470;2022-08-21T02:03:23;96837.33;;;23.13;45.63
47082;BME280;33066;49.296;14.470;2022-08-21T02:05:48;96837.08;;;23.09;45.63
47082;BME280;33066;49.296;14.470;2022-08-21T02:08:13;96831.92;;;22.90;45.72
47082;BME280;33066;49.296;14.470;2022-08-21T02:10:39;96828.48;;;22.93;45.77
47082;BME280;33066;49.296;14.470;2022-08-21T02:13:04;96826.13;;;23.17;45.50
47082;BME280;33066;49.296;14.470;2022-08-21T02:15:30;96823.26;;;23.15;45.68
47082;BME280;33066;49.296;14.470;2022-08-21T02:17:59;96822.43;;;23.18;45.66
47082;BME280;33066;49.296;14.470;2022-08-21T02:20:23;96820.14;;;22.93;45.66
47082;BME280;33066;49.296;14.470;2022-08-21T02:22:47;96819.49;;;23.16;45.49
47082;BME280;33066;49.296;14.470;2022-08-21T02:25:12;96816.45;;;23.11;45.62
47082;BME280;33066;49.296;14.470;2022-08-21T02:27:39;96814.91;;;23.13;45.53
47082;BME280;33066;49.296;14.470;2022-08-21T02:30:04;96813.39;;;23.13;45.73
47082;BME280;33066;49.296;14.470;2022-08-21T02:32:29;96812.33;;;22.87;45.71
47082;BME280;33066;49.296;14.470;2022-08-21T02:34:54;96813.41;;;23.09;45.78
47082;BME280;33066;49.296;14.470;2022-08-21T02:37:20;96810.37;;;23.07;45.67
47082;BME280;33066;49.296;14.470;2022-08-21T02:39:45;96809.35;;;22.82;45.72
47082;BME280;33066;49.296;14.470;2022-08-21T02:42:11;96807.37;;;23.05;45.62
47082;BME280;33066;49.296;14.470;2022-08-21T02:44:38;96805.31;;;23.05;45.65
47082;BME280;33066;49.296;14.470;2022-08-21T02:47:02;96808.56;;;23.30;45.82
47082;BME280;33066;49.296;14.470;2022-08-21T02:49:28;96806.44;;;22.81;45.79
47082;BME280;33066;49.296;14.470;2022-08-21T02:51:53;96805.00;;;22.87;45.71
47082;BME280;33066;49.296;14.470;2022-08-21T02:54:18;96803.65;;;22.85;45.80
47082;BME280;33066;49.296;14.470;2022-08-21T02:56:44;96804.71;;;23.09;45.72
47082;BME280;33066;49.296;14.470;2022-08-21T02:59:10;96803.31;;;23.08;45.71
47082;BME280;33066;49.296;14.470;2022-08-21T03:01:36;96805.36;;;23.10;45.72
47082;BME280;33066;49.296;14.470;2022-08-21T03:04:02;96805.81;;;22.82;45.72
47082;BME280;33066;49.296;14.470;2022-08-21T03:06:27;96803.39;;;23.09;45.67
47082;BME280;33066;49.296;14.470;2022-08-21T03:08:51;96805.89;;;23.07;45.64
47082;BME280;33066;49.296;14.470;2022-08-21T03:13:00;96809.28;;;23.16;45.12
47082;BME280;33066;49.296;14.470;2022-08-21T03:15:26;96811.08;;;23.05;45.38
47082;BME280;33066;49.296;14.470;2022-08-21T03:17:51;96811.47;;;23.18;45.34
47082;BME280;33066;49.296;14.470;2022-08-21T03:20:19;96811.59;;;22.87;45.40
47082;BME280;33066;49.296;14.470;2022-08-21T03:22:41;96810.68;;;22.80;45.51
47082;BME280;33066;49.296;14.470;2022-08-21T03:25:08;96813.06;;;23.03;45.50
47082;BME280;33066;49.296;14.470;2022-08-21T03:27:33;96815.38;;;22.73;45.79
47082;BME280;33066;49.296;14.470;2022-08-21T03:29:59;96814.72;;;22.73;45.79
47082;BME280;33066;49.296;14.470;2022-08-21T03:32:23;96815.32;;;22.92;45.73
47082;BME280;33066;49.296;14.470;2022-08-21T03:34:49;96813.41;;;22.69;45.83
47082;BME280;33066;49.296;14.470;2022-08-21T03:37:16;96812.95;;;22.93;45.90
47082;BME280;33066;49.296;14.470;2022-08-21T03:39:40;96814.73;;;22.88;45.91
47082;BME280;33066;49.296;14.470;2022-08-21T03:42:05;96814.66;;;22.89;45.82
47082;BME280;33066;49.296;14.470;2022-08-21T03:44:32;96815.99;;;22.94;45.81
47082;BME280;33066;49.296;14.470;2022-08-21T03:46:57;96819.38;;;22.92;45.98
47082;BME280;33066;49.296;14.470;2022-08-21T03:49:21;96822.05;;;22.94;45.90
47082;BME280;33066;49.296;14.470;2022-08-21T03:51:46;96821.37;;;22.93;45.80
47082;BME280;33066;49.296;14.470;2022-08-21T03:54:13;96826.15;;;22.94;45.90
47082;BME280;33066;49.296;14.470;2022-08-21T03:56:37;96824.83;;;22.89;45.92
47082;BME280;33066;49.296;14.470;2022-08-21T03:59:03;96820.55;;;22.95;45.86
47082;BME280;33066;49.296;14.470;2022-08-21T04:01:29;96821.25;;;22.96;45.89
47082;BME280;33066;49.296;14.470;2022-08-21T04:03:54;96819.50;;;22.95;45.98
47082;BME280;33066;49.296;14.470;2022-08-21T04:06:20;96818.48;;;22.99;45.81
47082;BME280;33066;49.296;14.470;2022-08-21T04:08:46;96820.39;;;22.75;45.79
47082;BME280;33066;49.296;14.470;2022-08-21T04:11:12;96820.18;;;23.00;45.77
47082;BME280;33066;49.296;14.470;2022-08-21T04:13:37;96822.96;;;22.97;45.85
47082;BME280;33066;49.296;14.470;2022-08-21T04:16:02;96826.88;;;22.91;45.99
47082;BME280;33066;49.296;14.470;2022-08-21T04:18:28;96829.12;;;23.01;45.88
47082;BME280;33066;49.296;14.470;2022-08-21T04:20:54;96830.77;;;22.80;45.66
47082;BME280;33066;49.296;14.470;2022-08-21T04:23:19;96833.94;;;23.05;45.71
47082;BME280;33066;49.296;14.470;2022-08-21T04:25:46;96833.91;;;23.07;45.81
47082;BME280;33066;49.296;14.470;2022-08-21T04:28:11;96832.03;;;23.08;45.83
47082;BME280;33066;49.296;14.470;2022-08-21T04:30:34;96835.08;;;23.04;45.84
47082;BME280;33066;49.296;14.470;2022-08-21T04:32:59;96833.99;;;23.05;45.69
47082;BME280;33066;49.296;14.470;2022-08-21T04:35:27;96836.48;;;23.05;45.71
47082;BME280;33066;49.296;14.470;2022-08-21T04:37:50;96841.19;;;22.81;45.68
47082;BME280;33066;49.296;14.470;2022-08-21T04:40:18;96841.62;;;23.10;45.80
47082;BME280;33066;49.296;14.470;2022-08-21T04:42:44;96842.52;;;22.88;45.86
47082;BME280;33066;49.296;14.470;2022-08-21T04:45:08;96841.05;;;23.14;45.85
47082;BME280;33066;49.296;14.470;2022-08-21T04:47:33;96838.75;;;22.95;45.69
47082;BME280;33066;49.296;14.470;2022-08-21T04:49:58;96838.37;;;23.20;45.77
47082;BME280;33066;49.296;14.470;2022-08-21T04:52:26;96838.71;;;23.18;45.81
47082;BME280;33066;49.296;14.470;2022-08-21T04:54:50;96840.07;;;23.22;45.77
47082;BME280;33066;49.296;14.470;2022-08-21T04:57:16;96844.58;;;23.21;45.80
47082;BME280;33066;49.296;14.470;2022-08-21T04:59:48;96847.60;;;23.18;45.84
47082;BME280;33066;49.296;14.470;2022-08-21T05:02:08;96851.14;;;23.22;45.71
47082;BME280;33066;49.296;14.470;2022-08-21T05:04:33;96852.22;;;23.01;45.68
47082;BME280;33066;49.296;14.470;2022-08-21T05:07:00;96851.23;;;23.25;45.65
47082;BME280;33066;49.296;14.470;2022-08-21T05:09:24;96848.47;;;23.02;45.81
47082;BME280;33066;49.296;14.470;2022-08-21T05:11:49;96847.44;;;23.27;45.73
47082;BME280;33066;49.296;14.470;2022-08-21T05:14:13;96847.41;;;22.92;45.63
47082;BME280;33066;49.296;14.470;2022-08-21T05:16:40;96848.29;;;23.32;45.21
47082;BME280;33066;49.296;14.470;2022-08-21T05:19:05;96848.13;;;23.44;45.39
47082;BME280;33066;49.296;14.470;2022-08-21T05:21:32;96851.92;;;23.11;45.53
47082;BME280;33066;49.296;14.470;2022-08-21T05:23:57;96849.88;;;23.32;45.57
47082;BME280;33066;49.296;14.470;2022-08-21T05:26:21;96852.66;;;23.10;45.72
47082;BME280;33066;49.296;14.470;2022-08-21T05:28:47;96850.43;;;23.28;45.74
47082;BME280;33066;49.296;14.470;2022-08-21T05:31:13;96851.44;;;22.98;45.89
47082;BME280;33066;49.296;14.470;2022-08-21T05:33:38;96851.93;;;22.96;45.95
47082;BME280;33066;49.296;14.470;2022-08-21T05:36:04;96857.35;;;23.21;45.91
47082;BME280;33066;49.296;14.470;2022-08-21T05:38:30;96860.54;;;23.25;45.81
47082;BME280;33066;49.296;14.470;2022-08-21T05:40:54;96861.80;;;23.01;45.78
47082;BME280;33066;49.296;14.470;2022-08-21T05:43:19;96862.65;;;22.93;45.95
47082;BME280;33066;49.296;14.470;2022-08-21T05:45:47;96860.72;;;23.01;45.88
47082;BME280;33066;49.296;14.470;2022-08-21T05:48:13;96862.86;;;23.28;45.97
47082;BME280;33066;49.296;14.470;2022-08-21T05:50:36;96863.06;;;23.22;45.89
47082;BME280;33066;49.296;14.470;2022-08-21T05:53:01;96863.11;;;23.24;45.84
47082;BME280;33066;49.296;14.470;2022-08-21T05:55:26;96863.54;;;23.20;45.63
47082;BME280;33066;49.296;14.470;2022-08-21T05:57:51;96863.96;;;23.00;45.77
47082;BME280;33066;49.296;14.470;2022-08-21T06:00:16;96863.15;;;22.72;45.58
47082;BME280;33066;49.296;14.470;2022-08-21T06:02:41;96864.45;;;23.21;45.86
47082;BME280;33066;49.296;14.470;2022-08-21T06:05:07;96863.95;;;23.14;45.87
47082;BME280;33066;49.296;14.470;2022-08-21T06:07:31;96866.69;;;23.03;46.00
47082;BME280;33066;49.296;14.470;2022-08-21T06:09:56;96868.25;;;22.97;46.27
47082;BME280;33066;49.296;14.470;2022-08-21T06:12:22;96868.16;;;23.02;46.16
47082;BME280;33066;49.296;14.470;2022-08-21T06:14:47;96867.34;;;23.09;46.00
47082;BME280;33066;49.296;14.470;2022-08-21T06:17:12;96867.65;;;23.03;46.00
47082;BME280;33066;49.296;14.470;2022-08-21T06:19:38;96869.40;;;23.00;46.15
47082;BME280;33066;49.296;14.470;2022-08-21T06:22:02;96866.68;;;22.75;46.31
47082;BME280;33066;49.296;14.470;2022-08-21T06:24:28;96868.19;;;23.01;46.16
47082;BME280;33066;49.296;14.470;2022-08-21T06:26:53;96867.56;;;23.01;46.02
47082;BME280;33066;49.296;14.470;2022-08-21T06:29:21;96870.03;;;23.02;46.04
47082;BME280;33066;49.296;14.470;2022-08-21T06:31:43;96874.10;;;23.00;46.18
47082;BME280;33066;49.296;14.470;2022-08-21T06:34:08;96876.73;;;22.90;46.38
47082;BME280;33066;49.296;14.470;2022-08-21T06:36:34;96877.40;;;22.78;46.29
47082;BME280;33066;49.296;14.470;2022-08-21T06:38:59;96876.44;;;22.94;46.36
47082;BME280;33066;49.296;14.470;2022-08-21T06:41:25;96878.18;;;23.35;46.18
47082;BME280;33066;49.296;14.470;2022-08-21T06:43:50;96879.74;;;23.18;45.97
47082;BME280;33066;49.296;14.470;2022-08-21T06:46:15;96878.27;;;23.36;46.06
47082;BME280;33066;49.296;14.470;2022-08-21T06:48:41;96881.14;;;23.33;46.24
47082;BME280;33066;49.296;14.470;2022-08-21T06:51:06;96881.26;;;23.21;46.22
47082;BME280;33066;49.296;14.470;2022-08-21T06:53:31;96885.02;;;23.12;46.34
47082;BME280;33066;49.296;14.470;2022-08-21T06:55:57;96884.97;;;23.06;46.31
47082;BME280;33066;49.296;14.470;2022-08-21T06:58:22;96888.81;;;23.12;46.41
47082;BME280;33066;49.296;14.470;2022-08-21T07:00:49;96885.65;;;23.18;46.08
47082;BME280;33066;49.296;14.470;2022-08-21T07:03:19;96886.97;;;23.23;46.00
47082;BME280;33066;49.296;14.470;2022-08-21T07:05:37;96890.41;;;23.34;45.94
47082;BME280;33066;49.296;14.470;2022-08-21T07:08:03;96889.50;;;23.44;45.74
47082;BME280;33066;49.296;14.470;2022-08-21T07:10:28;96890.81;;;23.30;45.42
47082;BME280;33066;49.296;14.470;2022-08-21T07:12:53;96885.75;;;23.39;45.38
47082;BME280;33066;49.296;14.470;2022-08-21T07:15:18;96884.15;;;23.38;45.14
47082;BME280;33066;49.296;14.470;2022-08-21T07:17:43;96890.95;;;23.35;45.36
47082;BME280;33066;49.296;14.470;2022-08-21T07:20:09;96893.14;;;23.59;45.50
47082;BME280;33066;49.296;14.470;2022-08-21T07:22:35;96890.95;;;23.53;45.15
47082;BME280;33066;49.296;14.470;2022-08-21T07:24:58;96892.42;;;23.40;44.96
47082;BME280;33066;49.296;14.470;2022-08-21T07:27:24;96888.16;;;23.53;44.59
47082;BME280;33066;49.296;14.470;2022-08-21T07:29:49;96889.82;;;23.64;44.36
47082;BME280;33066;49.296;14.470;2022-08-21T07:32:15;96893.46;;;23.71;44.31
47082;BME280;33066;49.296;14.470;2022-08-21T07:34:40;96893.28;;;23.90;43.68
47082;BME280;33066;49.296;14.470;2022-08-21T07:37:06;96894.98;;;23.86;43.48
47082;BME280;33066;49.296;14.470;2022-08-21T07:39:31;96896.64;;;23.61;43.75
47082;BME280;33066;49.296;14.470;2022-08-21T07:41:56;96892.43;;;23.65;43.83
47082;BME280;33066;49.296;14.470;2022-08-21T07:44:22;96894.93;;;23.70;43.59
47082;BME280;33066;49.296;14.470;2022-08-21T07:46:47;96897.50;;;23.81;43.06
47082;BME280;33066;49.296;14.470;2022-08-21T07:49:13;96905.12;;;23.77;43.20
47082;BME280;33066;49.296;14.470;2022-08-21T07:51:38;96901.01;;;23.65;43.18
47082;BME280;33066;49.296;14.470;2022-08-21T07:54:04;96903.83;;;23.91;43.38
47082;BME280;33066;49.296;14.470;2022-08-21T07:56:30;96903.88;;;23.73;43.11
47082;BME280;33066;49.296;14.470;2022-08-21T07:58:54;96906.19;;;23.59;43.37
47082;BME280;33066;49.296;14.470;2022-08-21T08:01:19;96904.91;;;23.60;42.97
47082;BME280;33066;49.296;14.470;2022-08-21T08:03:44;96907.34;;;23.65;43.12
47082;BME280;33066;49.296;14.470;2022-08-21T08:06:10;96902.41;;;23.84;42.89
47082;BME280;33066;49.296;14.470;2022-08-21T08:08:35;96902.78;;;23.74;42.82
47082;BME280;33066;49.296;14.470;2022-08-21T08:11:00;96903.46;;;23.74;42.65
47082;BME280;33066;49.296;14.470;2022-08-21T08:13:25;96901.73;;;23.96;42.65
47082;BME280;33066;49.296;14.470;2022-08-21T08:15:50;96895.67;;;23.72;42.37
47082;BME280;33066;49.296;14.470;2022-08-21T08:18:15;96896.49;;;23.76;42.61
47082;BME280;33066;49.296;14.470;2022-08-21T08:20:42;96899.66;;;23.77;42.60
47082;BME280;33066;49.296;14.470;2022-08-21T08:23:06;96900.51;;;23.76;42.57
47082;BME280;33066;49.296;14.470;2022-08-21T08:25:33;96902.25;;;23.72;42.98
47082;BME280;33066;49.296;14.470;2022-08-21T08:27:57;96900.32;;;23.79;42.73
47082;BME280;33066;49.296;14.470;2022-08-21T08:30:22;96899.08;;;23.96;42.57
47082;BME280;33066;49.296;14.470;2022-08-21T08:32:47;96897.56;;;24.18;42.53
47082;BME280;33066;49.296;14.470;2022-08-21T08:35:13;96898.15;;;24.16;41.80
47082;BME280;33066;49.296;14.470;2022-08-21T08:37:38;96899.52;;;23.91;41.91
47082;BME280;33066;49.296;14.470;2022-08-21T08:40:03;96901.72;;;23.94;42.12
47082;BME280;33066;49.296;14.470;2022-08-21T08:42:30;96901.13;;;24.00;41.96
47082;BME280;33066;49.296;14.470;2022-08-21T08:44:58;96899.70;;;24.08;41.71
47082;BME280;33066;49.296;14.470;2022-08-21T08:47:18;96896.90;;;24.20;41.70
47082;BME280;33066;49.296;14.470;2022-08-21T08:49:49;96895.98;;;24.35;41.45
47082;BME280;33066;49.296;14.470;2022-08-21T08:52:15;96898.65;;;24.60;41.40
47082;BME280;33066;49.296;14.470;2022-08-21T08:54:36;96895.12;;;24.71;41.19
47082;BME280;33066;49.296;14.470;2022-08-21T08:56:59;96893.50;;;24.89;40.98
47082;BME280;33066;49.296;14.470;2022-08-21T08:59:30;96892.63;;;24.55;40.74
47082;BME280;33066;49.296;14.470;2022-08-21T09:01:49;96890.95;;;24.72;40.68
47082;BME280;33066;49.296;14.470;2022-08-21T09:04:25;96893.79;;;25.27;40.00
47082;BME280;33066;49.296;14.470;2022-08-21T09:06:53;96897.90;;;25.20;40.45
47082;BME280;33066;49.296;14.470;2022-08-21T09:09:19;96900.69;;;25.06;40.37
47082;BME280;33066;49.296;14.470;2022-08-21T09:11:36;96903.22;;;24.86;40.40
47082;BME280;33066;49.296;14.470;2022-08-21T09:14:01;96907.30;;;24.99;40.29
47082;BME280;33066;49.296;14.470;2022-08-21T09:16:27;96906.13;;;25.05;40.01
47082;BME280;33066;49.296;14.470;2022-08-21T09:18:52;96903.32;;;25.04;39.66
47082;BME280;33066;49.296;14.470;2022-08-21T09:21:16;96904.49;;;25.14;38.81
47082;BME280;33066;49.296;14.470;2022-08-21T09:23:40;96910.23;;;25.18;38.94
47082;BME280;33066;49.296;14.470;2022-08-21T09:26:06;96909.81;;;24.95;39.62
47082;BME280;33066;49.296;14.470;2022-08-21T09:28:25;96906.34;;;25.00;39.73
47082;BME280;33066;49.296;14.470;2022-08-21T09:30:50;96903.98;;;25.35;39.19
47082;BME280;33066;49.296;14.470;2022-08-21T09:33:14;96900.80;;;25.41;38.92
47082;BME280;33066;49.296;14.470;2022-08-21T09:35:48;96902.37;;;25.42;38.88
47082;BME280;33066;49.296;14.470;2022-08-21T09:38:06;96903.44;;;25.40;37.61
47082;BME280;33066;49.296;14.470;2022-08-21T09:40:33;96905.27;;;25.60;38.50
47082;BME280;33066;49.296;14.470;2022-08-21T09:42:57;96901.92;;;25.46;37.76
47082;BME280;33066;49.296;14.470;2022-08-21T09:45:20;96900.83;;;25.23;38.23
47082;BME280;33066;49.296;14.470;2022-08-21T09:47:45;96897.09;;;25.40;37.51
47082;BME280;33066;49.296;14.470;2022-08-21T09:50:14;96897.20;;;25.59;37.39
47082;BME280;33066;49.296;14.470;2022-08-21T09:52:45;96896.56;;;25.83;37.49
47082;BME280;33066;49.296;14.470;2022-08-21T09:55:01;96891.99;;;26.06;37.21
47082;BME280;33066;49.296;14.470;2022-08-21T09:57:28;96892.89;;;25.95;36.91
47082;BME280;33066;49.296;14.470;2022-08-21T09:59:51;96888.35;;;26.19;36.69
47082;BME280;33066;49.296;14.470;2022-08-21T10:02:24;96889.45;;;26.02;36.39
47082;BME280;33066;49.296;14.470;2022-08-21T10:04:41;96890.63;;;26.08;36.51
47082;BME280;33066;49.296;14.470;2022-08-21T10:07:08;96893.29;;;25.65;37.04
47082;BME280;33066;49.296;14.470;2022-08-21T10:09:32;96894.45;;;25.54;37.48
47082;BME280;33066;49.296;14.470;2022-08-21T10:16:57;96893.67;;;25.58;37.28
47082;BME280;33066;49.296;14.470;2022-08-21T10:19:20;96895.72;;;25.55;36.99
47082;BME280;33066;49.296;14.470;2022-08-21T10:21:44;96893.92;;;25.42;37.53
47082;BME280;33066;49.296;14.470;2022-08-21T10:24:09;96894.20;;;25.48;37.63
47082;BME280;33066;49.296;14.470;2022-08-21T10:26:41;96893.30;;;25.58;37.19
47082;BME280;33066;49.296;14.470;2022-08-21T10:29:01;96897.46;;;25.71;37.12
47082;BME280;33066;49.296;14.470;2022-08-21T10:31:25;96893.50;;;25.90;37.09
47082;BME280;33066;49.296;14.470;2022-08-21T10:33:50;96891.95;;;25.84;37.13
47082;BME280;33066;49.296;14.470;2022-08-21T10:36:14;96890.61;;;26.19;36.77
47082;BME280;33066;49.296;14.470;2022-08-21T10:41:05;96886.80;;;25.69;36.34
47082;BME280;33066;49.296;14.470;2022-08-21T10:43:37;96881.93;;;25.99;36.24
47082;BME280;33066;49.296;14.470;2022-08-21T10:45:59;96875.82;;;25.87;36.49
47082;BME280;33066;49.296;14.470;2022-08-21T10:48:22;96872.99;;;26.37;36.15
47082;BME280;33066;49.296;14.470;2022-08-21T10:50:48;96874.12;;;26.82;35.42
47082;BME280;33066;49.296;14.470;2022-08-21T10:53:22;96868.92;;;27.35;34.78
47082;BME280;33066;49.296;14.470;2022-08-21T10:55:40;96871.88;;;27.09;34.55
47082;BME280;33066;49.296;14.470;2022-08-21T10:58:06;96868.17;;;27.44;34.80
47082;BME280;33066;49.296;14.470;2022-08-21T11:00:32;96866.40;;;27.47;34.46
47082;BME280;33066;49.296;14.470;2022-08-21T11:02:57;96861.88;;;27.52;33.68
47082;BME280;33066;49.296;14.470;2022-08-21T11:05:24;96860.25;;;27.86;33.26
47082;BME280;33066;49.296;14.470;2022-08-21T11:07:47;96857.37;;;27.74;33.53
47082;BME280;33066;49.296;14.470;2022-08-21T11:10:14;96860.62;;;28.25;33.76
47082;BME280;33066;49.296;14.470;2022-08-21T11:12:40;96853.30;;;28.18;33.12
47082;BME280;33066;49.296;14.470;2022-08-21T11:15:05;96859.86;;;27.87;33.04
47082;BME280;33066;49.296;14.470;2022-08-21T11:17:30;96861.86;;;27.56;33.76
47082;BME280;33066;49.296;14.470;2022-08-21T11:19:53;96859.17;;;27.83;33.60
47082;BME280;33066;49.296;14.470;2022-08-21T11:22:23;96859.61;;;27.87;33.49
47082;BME280;33066;49.296;14.470;2022-08-21T11:24:49;96861.86;;;28.43;33.24
47082;BME280;33066;49.296;14.470;2022-08-21T11:27:17;96859.64;;;29.16;32.31
47082;BME280;33066;49.296;14.470;2022-08-21T11:29:37;96854.28;;;29.90;31.33
47082;BME280;33066;49.296;14.470;2022-08-21T11:32:11;96845.67;;;29.33;30.96
47082;BME280;33066;49.296;14.470;2022-08-21T11:34:39;96847.52;;;29.82;30.98
47082;BME280;33066;49.296;14.470;2022-08-21T11:36:56;96844.13;;;29.77;30.60
47082;BME280;33066;49.296;14.470;2022-08-21T11:39:22;96848.68;;;29.43;30.64
47082;BME280;33066;49.296;14.470;2022-08-21T11:41:46;96847.15;;;29.65;30.77
47082;BME280;33066;49.296;14.470;2022-08-21T11:44:13;96840.94;;;30.08;31.00
47082;BME280;33066;49.296;14.470;2022-08-21T11:46:40;96832.83;;;30.00;30.43
47082;BME280;33066;49.296;14.470;2022-08-21T11:49:10;96827.22;;;30.66;29.86
47082;BME280;33066;49.296;14.470;2022-08-21T11:51:28;96823.66;;;30.65;29.27
47082;BME280;33066;49.296;14.470;2022-08-21T11:53:58;96825.99;;;30.06;29.90
47082;BME280;33066;49.296;14.470;2022-08-21T11:56:19;96819.70;;;30.18;30.11
47082;BME280;33066;49.296;14.470;2022-08-21T11:58:47;96819.02;;;30.61;29.75
47082;BME280;33066;49.296;14.470;2022-08-21T12:01:12;96821.61;;;30.52;28.71
47082;BME280;33066;49.296;14.470;2022-08-21T12:03:35;96821.04;;;31.20;28.19
47082;BME280;33066;49.296;14.470;2022-08-21T12:06:04;96821.86;;;31.17;28.02
47082;BME280;33066;49.296;14.470;2022-08-21T12:08:29;96824.37;;;30.08;29.00
47082;BME280;33066;49.296;14.470;2022-08-21T12:10:59;96818.63;;;29.63;29.78
47082;BME280;33066;49.296;14.470;2022-08-21T12:13:23;96815.20;;;29.14;30.46
47082;BME280;33066;49.296;14.470;2022-08-21T12:15:41;96812.33;;;29.11;30.97
47082;BME280;33066;49.296;14.470;2022-08-21T12:20:39;96809.42;;;29.88;29.71
47082;BME280;33066;49.296;14.470;2022-08-21T12:23:12;96807.86;;;30.37;29.42
47082;BME280;33066;49.296;14.470;2022-08-21T12:25:25;96807.26;;;30.71;28.72
47082;BME280;33066;49.296;14.470;2022-08-21T12:27:52;96806.35;;;31.65;28.35
47082;BME280;33066;49.296;14.470;2022-08-21T12:30:33;96804.58;;;31.31;27.69
47082;BME280;33066;49.296;14.470;2022-08-21T12:32:45;96801.98;;;31.66;27.32
47082;BME280;33066;49.296;14.470;2022-08-21T12:35:12;96802.80;;;31.47;26.82
47082;BME280;33066;49.296;14.470;2022-08-21T12:37:38;96800.89;;;31.28;28.16
47082;BME280;33066;49.296;14.470;2022-08-21T12:39:59;96805.97;;;30.67;28.70
47082;BME280;33066;49.296;14.470;2022-08-21T12:42:27;96800.68;;;30.20;28.58
47082;BME280;33066;49.296;14.470;2022-08-21T12:44:52;96797.17;;;29.77;28.59
47082;BME280;33066;49.296;14.470;2022-08-21T12:47:17;96795.31;;;29.53;29.43
47082;BME280;33066;49.296;14.470;2022-08-21T12:49:51;96795.45;;;29.56;29.60
47082;BME280;33066;49.296;14.470;2022-08-21T12:52:14;96791.55;;;29.80;29.59